• Join FlightAware (Why Join?)
  • Login
  • US Flag 
05:38AM EST


 

Airport Tracker/Info


-or-


 

Live Flight TrackerFlight Track Log ✈ UPS1121 ✈ 17-Jun-2013 ✈ KALB - KBDL

Flight Track Log - Related Links

Times and Time Zones

All times are in EDT time to prevent confusion due to time zone crossing. See the UPS1121 flight status page for this flight to view local times or setup timezone preferences in your user account.

Time Position Orientation Groundspeed Altitude Reporting Facility
EDT Latitude Longitude Course Direction KTS MPH feet Rate Location/Type
08:35PM 42.7361 -73.8083 136° Southeast 149 171 1,800  Level Boston Center
08:37PM 42.6478 -73.6933 136° Southeast 290 334 6,700 2,940 Climbing Boston Center
08:38PM 42.5842 -73.5933 131° Southeast 303 349 10,400 2,160 Climbing Boston Center
08:39PM 42.5350 -73.5164 131° Southeast 322 371 11,100 480 Climbing Boston Center
08:39PM 42.4978 -73.4650 134° Southeast 332 382 11,100  Level Boston Center
08:40PM 42.4631 -73.4083 130° Southeast 319 367 11,100 -120 Level Boston Center
08:40PM 42.4300 -73.3656 136° Southeast 312 359 11,000 -120 Descending Boston Center
08:41PM 42.4072 -73.3342 134° Southeast 308 354 11,000  Level Boston Center
08:41PM 42.3703 -73.2831 134° Southeast 311 358 11,000  Level Boston Center
08:42PM 42.3414 -73.2406 133° Southeast 303 349 11,000 -240 Level Boston Center
08:42PM 42.3103 -73.1981 135° Southeast 311 358 10,800 -840 Descending Boston Center
08:43PM 42.2878 -73.1558 126° Southeast 303 349 10,200 -1,320 Descending Boston Center
08:43PM 42.2525 -73.1133 138° Southeast 309 356 9,500 -1,200 Descending Boston Center
08:44PM 42.2339 -73.0794 127° Southeast 308 354 9,000 -1,500 Descending Boston Center
08:44PM 42.1967 -73.0286 135° Southeast 303 349 8,000 -1,800 Descending Boston Center
08:45PM 42.1367 -72.9439 134° Southeast 293 337 6,200 -1,620 Descending Boston Center
08:46PM 42.1222 -72.9214 131° Southeast 297 342 5,700 -1,200 Descending Boston Center
08:46PM 42.0808 -72.8653 135° Southeast 289 333 5,000 -720 Descending Boston Center
08:47PM 42.0661 -72.8456 135° Southeast 292 336 5,000  Level Boston Center
08:47PM 42.0308 -72.8006 137° Southeast 250 288 5,000  Level Boston Center
08:48PM 42.0122 -72.7867 151° Southeast 270 311 5,000  Level Boston Center
08:48PM 41.9747 -72.8228 216° Southwest 226 260 5,000 -240 Level Boston Center
08:49PM 41.9642 -72.8339 218° Southwest 196 226 4,800 -900 Descending Boston Center
08:49PM 41.9328 -72.8783 226° Southwest 216 249 4,100 -840 Descending Boston Center
08:50PM 41.9181 -72.8892 209° Southwest 188 216 4,000 -540 Descending Boston Center
08:50PM 41.8764 -72.9114 202° Southwest 224 258 3,600 -720 Descending Boston Center
08:51PM 41.8639 -72.9028 153° Southeast 199 229 3,300 -1,020 Descending Boston Center
08:51PM 41.8392 -72.8442 120° Southeast 230 265 2,600 -840 Descending Boston Center
08:52PM 41.8369 -72.8275 100° East 167 192 2,500 -840 Descending Boston Center
08:52PM 41.8642 -72.7886 47° Northeast 179 206 1,800 -720 Descending Boston Center
08:53PM 41.8706 -72.7775 52° Northeast 118 136 1,800 -540 Level Boston Center
08:53PM 41.8936 -72.7525 39° Northeast 144 166 1,300 -720 Descending Boston Center
08:54PM 41.8997 -72.7414 54° Northeast 118 136 1,100 -720 Descending Boston Center
08:54PM 41.9186 -72.7192 41° Northeast 129 148 600 -780 Descending Boston Center
08:56PM 41.9333 -72.6833 67° East  Level FlightAware Approximate
09:03PM 41.9392 -72.6834 67° East  Level Estimated